Hyundai Republic — A8IL3 — position and weather

sailwx.info

Track history (hours):
 
Tides and Currents Weather Stations Pressure Air Temp Water Temp Dewpoint Dewpoint Depression Visibility Wind Speed Wind Dir Waves Ship Positions

Hyundai Republic

Last reported at 2016-Aug-29 15:03 UTC. Time now 2016-Aug-30 10:58 UTC.
Position N 31°20' E 121°40'.

Length 305 m; draft 10.5 m.

Type: Ship (hazmat cat A). MMSI: 636090994.

Date/timePositionNaut miles runAvg speedWind from/ knotsBaromVisibWave heightAir tempDewpointWater temp
2016-Aug-29 15:03N 31°20' E 121°40'1 0.4
2016-Aug-29 12:32N 31°20' E 121°39'0 0.0
2016-Aug-29 02:32N 31°20' E 121°39'8 7.7
2016-Aug-29 01:31N 31°18' E 121°48'67 2.3
2016-Aug-27 21:13N 30°46' E 122°56'1111.5
2016-Aug-27 20:17N 30°37' E 123°03'42012.4
2016-Aug-26 10:33N 24°29' E 119°15'1414.3
2016-Aug-26 09:33N 24°20' E 119°03'1514.8
2016-Aug-26 08:33N 24°11' E 118°51'1614.6
2016-Aug-26 07:29N 24°01' E 118°37'1314.2
2016-Aug-26 06:33N 23°52' E 118°26'243 6.3
2016-Aug-24 16:07N 22°34' E 114°16'27 2.0
2016-Aug-24 02:25N 22°08' E 114°26'3311.5
2016-Aug-23 23:32N 22°09' E 113°50'1716.5
2016-Aug-23 22:32N 22°26' E 113°45'2 0.2
2016-Aug-23 12:14N 22°24' E 113°46'913.6
2016-Aug-23 11:33N 22°15' E 113°49'3110.4
2016-Aug-23 08:33N 22°08' E 114°21'1414.3
2016-Aug-23 07:33N 22°10' E 114°36'23813.1
2016-Aug-22 13:25N 23°53' E 118°30'4012.9
2016-Aug-22 10:19N 24°21' E 119°01'1013.5
2016-Aug-22 09:33N 24°27' E 119°10'36012.9
2016-Aug-21 05:33N 29°41' E 122°27'1212.3
2016-Aug-21 04:33N 29°48' E 122°15'1110.7
2016-Aug-21 03:33N 29°55' E 122°07'4 4.0
2016-Aug-21 02:31N 29°54' E 122°02'0 0.0
2016-Aug-21 01:31N 29°54' E 122°02'0 0.0
2016-Aug-21 00:13N 29°54' E 122°02'0 0.0
2016-Aug-20 23:25N 29°54' E 122°02'0 0.0
2016-Aug-20 20:25N 29°54' E 122°02'0 0.0
2016-Aug-20 19:31N 29°54' E 122°02'0 0.0
2016-Aug-20 15:31N 29°54' E 122°02'0 0.0
2016-Aug-20 14:31N 29°54' E 122°02'0 0.0
2016-Aug-20 13:31N 29°54' E 122°02'0 0.0
2016-Aug-20 12:07N 29°54' E 122°02'0 0.0
2016-Aug-20 11:25N 29°54' E 122°02'0 0.0
2016-Aug-20 06:04N 29°54' E 122°02'1 2.9
2016-Aug-20 05:33N 29°54' E 122°04'1110.9
2016-Aug-20 04:33N 29°48' E 122°15'9 9.2
2016-Aug-20 03:32N 29°44' E 122°24'  
Track history (hours):
 
Tides and Currents Weather Stations Pressure Air Temp Water Temp Dewpoint Dewpoint Depression Visibility Wind Speed Wind Dir Waves Ship Positions

Hyundai Republic

Last reported at 2016-Aug-29 15:03 UTC. Time now 2016-Aug-30 10:58 UTC.
Position N 31°20' E 121°40'.

Length 305 m; draft 10.5 m.

Type: Ship (hazmat cat A). MMSI: 636090994.

Date/timePositionNaut miles runAvg speedWind from/ knotsBaromVisibWave heightAir tempDewpointWater temp
2016-Aug-29 15:03N 31°20' E 121°40'1 0.4
2016-Aug-29 12:32N 31°20' E 121°39'0 0.0
2016-Aug-29 02:32N 31°20' E 121°39'8 7.7
2016-Aug-29 01:31N 31°18' E 121°48'67 2.3
2016-Aug-27 21:13N 30°46' E 122°56'1111.5
2016-Aug-27 20:17N 30°37' E 123°03'42012.4
2016-Aug-26 10:33N 24°29' E 119°15'1414.3
2016-Aug-26 09:33N 24°20' E 119°03'1514.8
2016-Aug-26 08:33N 24°11' E 118°51'1614.6
2016-Aug-26 07:29N 24°01' E 118°37'1314.2
2016-Aug-26 06:33N 23°52' E 118°26'243 6.3
2016-Aug-24 16:07N 22°34' E 114°16'27 2.0
2016-Aug-24 02:25N 22°08' E 114°26'3311.5
2016-Aug-23 23:32N 22°09' E 113°50'1716.5
2016-Aug-23 22:32N 22°26' E 113°45'2 0.2
2016-Aug-23 12:14N 22°24' E 113°46'913.6
2016-Aug-23 11:33N 22°15' E 113°49'3110.4
2016-Aug-23 08:33N 22°08' E 114°21'1414.3
2016-Aug-23 07:33N 22°10' E 114°36'23813.1
2016-Aug-22 13:25N 23°53' E 118°30'4012.9
2016-Aug-22 10:19N 24°21' E 119°01'1013.5
2016-Aug-22 09:33N 24°27' E 119°10'36012.9
2016-Aug-21 05:33N 29°41' E 122°27'1212.3
2016-Aug-21 04:33N 29°48' E 122°15'1110.7
2016-Aug-21 03:33N 29°55' E 122°07'4 4.0
2016-Aug-21 02:31N 29°54' E 122°02'0 0.0
2016-Aug-21 01:31N 29°54' E 122°02'0 0.0
2016-Aug-21 00:13N 29°54' E 122°02'0 0.0
2016-Aug-20 23:25N 29°54' E 122°02'0 0.0
2016-Aug-20 20:25N 29°54' E 122°02'0 0.0
2016-Aug-20 19:31N 29°54' E 122°02'0 0.0
2016-Aug-20 15:31N 29°54' E 122°02'0 0.0
2016-Aug-20 14:31N 29°54' E 122°02'0 0.0
2016-Aug-20 13:31N 29°54' E 122°02'0 0.0
2016-Aug-20 12:07N 29°54' E 122°02'0 0.0
2016-Aug-20 11:25N 29°54' E 122°02'0 0.0
2016-Aug-20 06:04N 29°54' E 122°02'1 2.9
2016-Aug-20 05:33N 29°54' E 122°04'1110.9
2016-Aug-20 04:33N 29°48' E 122°15'9 9.2
2016-Aug-20 03:32N 29°44' E 122°24'  

Dump ship's entire track history